sensor_id;sensor_type;location;lat;lon;timestamp;P1;durP1;ratioP1;P2;durP2;ratioP2
27424;SDS011;15244;49.088;11.886;2023-05-16T00:03:42;4.30;;;4.00;;
27424;SDS011;15244;49.088;11.886;2023-05-16T00:08:44;4.25;;;3.85;;
27424;SDS011;15244;49.088;11.886;2023-05-16T00:13:45;3.78;;;3.58;;
27424;SDS011;15244;49.088;11.886;2023-05-16T00:18:48;4.22;;;3.83;;
27424;SDS011;15244;49.088;11.886;2023-05-16T00:23:50;3.70;;;3.40;;
27424;SDS011;15244;49.088;11.886;2023-05-16T00:28:52;6.53;;;3.78;;
27424;SDS011;15244;49.088;11.886;2023-05-16T00:33:54;4.40;;;4.00;;
27424;SDS011;15244;49.088;11.886;2023-05-16T00:38:57;4.93;;;4.28;;
27424;SDS011;15244;49.088;11.886;2023-05-16T00:44:00;4.78;;;4.50;;
27424;SDS011;15244;49.088;11.886;2023-05-16T00:49:02;4.47;;;4.18;;
27424;SDS011;15244;49.088;11.886;2023-05-16T00:54:04;4.10;;;3.80;;
27424;SDS011;15244;49.088;11.886;2023-05-16T00:59:06;4.32;;;4.10;;
27424;SDS011;15244;49.088;11.886;2023-05-16T01:04:08;4.15;;;3.90;;
27424;SDS011;15244;49.088;11.886;2023-05-16T01:09:10;3.67;;;3.47;;
27424;SDS011;15244;49.088;11.886;2023-05-16T01:19:46;4.60;;;4.30;;
27424;SDS011;15244;49.088;11.886;2023-05-16T01:25:13;4.60;;;4.30;;
27424;SDS011;15244;49.088;11.886;2023-05-16T01:30:20;4.75;;;4.35;;
27424;SDS011;15244;49.088;11.886;2023-05-16T01:35:22;4.93;;;4.50;;
27424;SDS011;15244;49.088;11.886;2023-05-16T01:40:31;4.53;;;4.32;;
27424;SDS011;15244;49.088;11.886;2023-05-16T01:45:41;4.43;;;4.22;;
27424;SDS011;15244;49.088;11.886;2023-05-16T01:50:53;4.80;;;4.40;;
27424;SDS011;15244;49.088;11.886;2023-05-16T01:55:56;4.65;;;4.32;;
27424;SDS011;15244;49.088;11.886;2023-05-16T02:01:01;5.10;;;4.70;;
27424;SDS011;15244;49.088;11.886;2023-05-16T02:06:04;6.18;;;4.57;;
27424;SDS011;15244;49.088;11.886;2023-05-16T02:11:06;4.97;;;4.68;;
27424;SDS011;15244;49.088;11.886;2023-05-16T02:16:09;5.80;;;5.40;;
27424;SDS011;15244;49.088;11.886;2023-05-16T02:21:11;5.03;;;4.72;;
27424;SDS011;15244;49.088;11.886;2023-05-16T02:26:12;5.43;;;5.00;;
27424;SDS011;15244;49.088;11.886;2023-05-16T02:36:29;6.30;;;5.43;;
27424;SDS011;15244;49.088;11.886;2023-05-16T02:41:31;5.47;;;5.07;;
27424;SDS011;15244;49.088;11.886;2023-05-16T02:46:33;5.63;;;5.25;;
27424;SDS011;15244;49.088;11.886;2023-05-16T02:51:37;6.30;;;5.15;;
27424;SDS011;15244;49.088;11.886;2023-05-16T02:56:38;4.85;;;4.50;;
27424;SDS011;15244;49.088;11.886;2023-05-16T03:01:40;4.97;;;4.68;;
27424;SDS011;15244;49.088;11.886;2023-05-16T03:06:42;4.47;;;4.15;;
27424;SDS011;15244;49.088;11.886;2023-05-16T03:11:44;4.90;;;4.60;;
27424;SDS011;15244;49.088;11.886;2023-05-16T03:16:46;4.60;;;4.30;;
27424;SDS011;15244;49.088;11.886;2023-05-16T03:21:47;5.47;;;5.07;;
27424;SDS011;15244;49.088;11.886;2023-05-16T03:26:49;4.95;;;4.55;;
27424;SDS011;15244;49.088;11.886;2023-05-16T03:31:54;6.07;;;4.28;;
27424;SDS011;15244;49.088;11.886;2023-05-16T03:36:56;6.05;;;4.60;;
27424;SDS011;15244;49.088;11.886;2023-05-16T03:41:58;4.95;;;4.60;;
27424;SDS011;15244;49.088;11.886;2023-05-16T03:47:00;5.20;;;4.70;;
27424;SDS011;15244;49.088;11.886;2023-05-16T03:52:03;4.72;;;4.43;;
27424;SDS011;15244;49.088;11.886;2023-05-16T03:57:05;5.20;;;4.80;;
27424;SDS011;15244;49.088;11.886;2023-05-16T04:02:08;4.63;;;4.22;;
27424;SDS011;15244;49.088;11.886;2023-05-16T04:07:09;4.47;;;4.28;;
27424;SDS011;15244;49.088;11.886;2023-05-16T04:12:11;5.28;;;4.85;;
27424;SDS011;15244;49.088;11.886;2023-05-16T04:17:12;7.60;;;5.25;;
27424;SDS011;15244;49.088;11.886;2023-05-16T04:22:14;4.40;;;4.07;;
27424;SDS011;15244;49.088;11.886;2023-05-16T04:27:16;4.55;;;4.25;;
27424;SDS011;15244;49.088;11.886;2023-05-16T04:32:18;4.10;;;3.90;;
27424;SDS011;15244;49.088;11.886;2023-05-16T04:37:20;4.78;;;4.47;;
27424;SDS011;15244;49.088;11.886;2023-05-16T04:42:21;4.88;;;4.00;;
27424;SDS011;15244;49.088;11.886;2023-05-16T04:47:24;4.97;;;4.47;;
27424;SDS011;15244;49.088;11.886;2023-05-16T04:52:26;5.03;;;4.70;;
27424;SDS011;15244;49.088;11.886;2023-05-16T04:57:27;4.85;;;4.55;;
27424;SDS011;15244;49.088;11.886;2023-05-16T05:02:29;5.22;;;4.82;;
27424;SDS011;15244;49.088;11.886;2023-05-16T05:07:31;4.72;;;4.43;;
27424;SDS011;15244;49.088;11.886;2023-05-16T05:12:34;5.53;;;4.90;;
27424;SDS011;15244;49.088;11.886;2023-05-16T05:17:36;5.00;;;4.40;;
27424;SDS011;15244;49.088;11.886;2023-05-16T05:22:38;5.20;;;4.82;;
27424;SDS011;15244;49.088;11.886;2023-05-16T05:27:39;5.35;;;4.95;;
27424;SDS011;15244;49.088;11.886;2023-05-16T05:32:41;5.43;;;5.03;;
27424;SDS011;15244;49.088;11.886;2023-05-16T05:37:42;5.45;;;5.05;;
27424;SDS011;15244;49.088;11.886;2023-05-16T05:42:44;5.97;;;5.47;;
27424;SDS011;15244;49.088;11.886;2023-05-16T05:47:47;5.88;;;5.22;;
27424;SDS011;15244;49.088;11.886;2023-05-16T05:52:49;5.85;;;5.45;;
27424;SDS011;15244;49.088;11.886;2023-05-16T05:57:50;6.70;;;6.10;;
27424;SDS011;15244;49.088;11.886;2023-05-16T06:02:52;6.60;;;6.15;;
27424;SDS011;15244;49.088;11.886;2023-05-16T06:07:54;7.10;;;6.60;;
27424;SDS011;15244;49.088;11.886;2023-05-16T06:12:55;10.43;;;6.35;;
27424;SDS011;15244;49.088;11.886;2023-05-16T06:17:57;6.32;;;5.93;;
27424;SDS011;15244;49.088;11.886;2023-05-16T06:22:58;7.60;;;6.93;;
27424;SDS011;15244;49.088;11.886;2023-05-16T06:28:00;6.45;;;6.05;;
27424;SDS011;15244;49.088;11.886;2023-05-16T06:33:01;7.53;;;6.47;;
27424;SDS011;15244;49.088;11.886;2023-05-16T06:38:03;7.47;;;6.97;;
27424;SDS011;15244;49.088;11.886;2023-05-16T06:43:05;7.78;;;7.18;;
27424;SDS011;15244;49.088;11.886;2023-05-16T06:48:06;7.53;;;6.93;;
27424;SDS011;15244;49.088;11.886;2023-05-16T06:53:08;7.13;;;5.93;;
27424;SDS011;15244;49.088;11.886;2023-05-16T06:58:12;9.88;;;7.20;;
27424;SDS011;15244;49.088;11.886;2023-05-16T07:03:13;6.38;;;5.97;;
27424;SDS011;15244;49.088;11.886;2023-05-16T07:08:15;7.80;;;7.20;;
27424;SDS011;15244;49.088;11.886;2023-05-16T07:13:17;6.10;;;5.70;;
27424;SDS011;15244;49.088;11.886;2023-05-16T07:18:18;6.97;;;6.38;;
27424;SDS011;15244;49.088;11.886;2023-05-16T07:23:20;7.28;;;6.68;;
27424;SDS011;15244;49.088;11.886;2023-05-16T07:28:22;7.72;;;7.03;;
27424;SDS011;15244;49.088;11.886;2023-05-16T07:33:24;7.47;;;6.65;;
27424;SDS011;15244;49.088;11.886;2023-05-16T07:38:25;7.72;;;7.13;;
27424;SDS011;15244;49.088;11.886;2023-05-16T07:43:27;7.40;;;6.78;;
27424;SDS011;15244;49.088;11.886;2023-05-16T07:48:30;8.50;;;7.80;;
27424;SDS011;15244;49.088;11.886;2023-05-16T07:53:32;7.45;;;6.95;;
27424;SDS011;15244;49.088;11.886;2023-05-16T07:58:33;8.02;;;7.38;;
27424;SDS011;15244;49.088;11.886;2023-05-16T08:03:35;7.00;;;6.40;;
27424;SDS011;15244;49.088;11.886;2023-05-16T08:08:37;7.57;;;7.00;;
27424;SDS011;15244;49.088;11.886;2023-05-16T08:13:39;6.93;;;6.22;;
27424;SDS011;15244;49.088;11.886;2023-05-16T08:18:41;6.70;;;6.22;;
27424;SDS011;15244;49.088;11.886;2023-05-16T08:23:42;7.43;;;6.93;;
27424;SDS011;15244;49.088;11.886;2023-05-16T08:28:44;7.10;;;6.47;;
27424;SDS011;15244;49.088;11.886;2023-05-16T08:33:45;6.75;;;6.28;;
27424;SDS011;15244;49.088;11.886;2023-05-16T08:38:48;7.60;;;7.10;;
27424;SDS011;15244;49.088;11.886;2023-05-16T08:43:51;6.93;;;6.32;;
27424;SDS011;15244;49.088;11.886;2023-05-16T08:48:52;7.70;;;7.10;;
27424;SDS011;15244;49.088;11.886;2023-05-16T08:54:05;6.60;;;6.10;;
27424;SDS011;15244;49.088;11.886;2023-05-16T08:59:11;6.55;;;6.00;;
27424;SDS011;15244;49.088;11.886;2023-05-16T09:04:13;6.55;;;6.15;;
27424;SDS011;15244;49.088;11.886;2023-05-16T09:09:16;6.45;;;5.85;;
27424;SDS011;15244;49.088;11.886;2023-05-16T09:14:17;6.90;;;6.25;;
27424;SDS011;15244;49.088;11.886;2023-05-16T09:19:19;7.88;;;7.22;;
27424;SDS011;15244;49.088;11.886;2023-05-16T09:24:24;7.15;;;6.45;;
27424;SDS011;15244;49.088;11.886;2023-05-16T09:29:26;7.57;;;6.60;;
27424;SDS011;15244;49.088;11.886;2023-05-16T09:34:28;6.20;;;5.70;;
27424;SDS011;15244;49.088;11.886;2023-05-16T09:39:29;5.88;;;5.38;;
27424;SDS011;15244;49.088;11.886;2023-05-16T09:44:31;6.47;;;5.90;;
27424;SDS011;15244;49.088;11.886;2023-05-16T09:49:32;6.35;;;5.80;;
27424;SDS011;15244;49.088;11.886;2023-05-16T09:54:37;6.10;;;5.60;;
27424;SDS011;15244;49.088;11.886;2023-05-16T09:59:39;5.95;;;5.47;;
27424;SDS011;15244;49.088;11.886;2023-05-16T10:04:41;5.80;;;5.30;;
27424;SDS011;15244;49.088;11.886;2023-05-16T10:09:42;5.95;;;5.50;;
27424;SDS011;15244;49.088;11.886;2023-05-16T10:14:45;7.50;;;6.80;;
27424;SDS011;15244;49.088;11.886;2023-05-16T10:19:50;5.72;;;5.22;;
27424;SDS011;15244;49.088;11.886;2023-05-16T10:25:07;5.80;;;5.30;;
27424;SDS011;15244;49.088;11.886;2023-05-16T10:30:16;5.68;;;5.22;;
27424;SDS011;15244;49.088;11.886;2023-05-16T10:35:18;6.20;;;5.70;;
27424;SDS011;15244;49.088;11.886;2023-05-16T10:40:20;7.30;;;6.35;;
27424;SDS011;15244;49.088;11.886;2023-05-16T10:45:23;5.68;;;5.30;;
27424;SDS011;15244;49.088;11.886;2023-05-16T10:50:41;7.50;;;6.25;;
27424;SDS011;15244;49.088;11.886;2023-05-16T10:56:05;6.03;;;5.53;;
27424;SDS011;15244;49.088;11.886;2023-05-16T11:06:19;5.65;;;5.25;;
27424;SDS011;15244;49.088;11.886;2023-05-16T11:17:00;5.43;;;4.85;;
27424;SDS011;15244;49.088;11.886;2023-05-16T11:22:04;6.57;;;5.20;;
27424;SDS011;15244;49.088;11.886;2023-05-16T11:27:08;5.20;;;4.80;;
27424;SDS011;15244;49.088;11.886;2023-05-16T11:32:17;4.65;;;4.35;;
27424;SDS011;15244;49.088;11.886;2023-05-16T11:37:20;4.45;;;4.20;;
27424;SDS011;15244;49.088;11.886;2023-05-16T11:42:21;6.38;;;4.32;;
27424;SDS011;15244;49.088;11.886;2023-05-16T11:47:23;4.95;;;4.65;;
27424;SDS011;15244;49.088;11.886;2023-05-16T11:52:25;4.78;;;4.05;;
27424;SDS011;15244;49.088;11.886;2023-05-16T11:57:28;5.90;;;3.95;;
27424;SDS011;15244;49.088;11.886;2023-05-16T12:02:29;4.20;;;3.90;;
27424;SDS011;15244;49.088;11.886;2023-05-16T12:07:32;5.15;;;4.22;;
27424;SDS011;15244;49.088;11.886;2023-05-16T12:12:34;4.40;;;4.10;;
27424;SDS011;15244;49.088;11.886;2023-05-16T12:17:37;4.15;;;3.80;;
27424;SDS011;15244;49.088;11.886;2023-05-16T12:22:43;4.78;;;4.38;;
27424;SDS011;15244;49.088;11.886;2023-05-16T12:27:45;5.15;;;4.85;;
27424;SDS011;15244;49.088;11.886;2023-05-16T12:32:56;5.07;;;4.57;;
27424;SDS011;15244;49.088;11.886;2023-05-16T12:38:02;5.68;;;5.28;;
27424;SDS011;15244;49.088;11.886;2023-05-16T12:43:15;5.80;;;5.22;;
27424;SDS011;15244;49.088;11.886;2023-05-16T12:48:19;6.22;;;5.65;;
27424;SDS011;15244;49.088;11.886;2023-05-16T12:53:21;6.88;;;6.20;;
27424;SDS011;15244;49.088;11.886;2023-05-16T12:58:23;6.25;;;5.75;;
27424;SDS011;15244;49.088;11.886;2023-05-16T13:03:25;7.43;;;6.72;;
27424;SDS011;15244;49.088;11.886;2023-05-16T13:08:27;7.13;;;6.63;;
27424;SDS011;15244;49.088;11.886;2023-05-16T13:13:29;6.43;;;5.95;;
27424;SDS011;15244;49.088;11.886;2023-05-16T13:18:35;6.30;;;5.70;;
27424;SDS011;15244;49.088;11.886;2023-05-16T13:23:37;7.35;;;6.25;;
27424;SDS011;15244;49.088;11.886;2023-05-16T13:28:38;6.53;;;5.97;;
27424;SDS011;15244;49.088;11.886;2023-05-16T13:33:40;6.68;;;5.32;;
27424;SDS011;15244;49.088;11.886;2023-05-16T13:38:42;6.22;;;5.72;;
27424;SDS011;15244;49.088;11.886;2023-05-16T13:43:43;6.00;;;5.53;;
27424;SDS011;15244;49.088;11.886;2023-05-16T13:48:45;6.68;;;5.35;;
27424;SDS011;15244;49.088;11.886;2023-05-16T13:53:46;7.75;;;5.97;;
27424;SDS011;15244;49.088;11.886;2023-05-16T13:58:48;5.55;;;4.93;;
27424;SDS011;15244;49.088;11.886;2023-05-16T14:04:04;5.43;;;5.03;;
27424;SDS011;15244;49.088;11.886;2023-05-16T14:09:06;7.85;;;4.80;;
27424;SDS011;15244;49.088;11.886;2023-05-16T14:14:08;5.60;;;5.10;;
27424;SDS011;15244;49.088;11.886;2023-05-16T14:19:10;4.78;;;4.38;;
27424;SDS011;15244;49.088;11.886;2023-05-16T14:24:13;5.95;;;4.40;;
27424;SDS011;15244;49.088;11.886;2023-05-16T14:29:14;4.95;;;4.55;;
27424;SDS011;15244;49.088;11.886;2023-05-16T14:34:16;4.72;;;4.38;;
27424;SDS011;15244;49.088;11.886;2023-05-16T14:39:18;4.72;;;4.43;;
27424;SDS011;15244;49.088;11.886;2023-05-16T14:44:20;4.68;;;4.22;;
27424;SDS011;15244;49.088;11.886;2023-05-16T14:49:24;5.85;;;5.22;;
27424;SDS011;15244;49.088;11.886;2023-05-16T14:54:26;6.30;;;5.80;;
27424;SDS011;15244;49.088;11.886;2023-05-16T14:59:27;6.65;;;6.18;;
27424;SDS011;15244;49.088;11.886;2023-05-16T15:04:29;7.65;;;6.90;;
27424;SDS011;15244;49.088;11.886;2023-05-16T15:09:31;6.65;;;6.15;;
27424;SDS011;15244;49.088;11.886;2023-05-16T15:14:33;7.25;;;6.65;;
27424;SDS011;15244;49.088;11.886;2023-05-16T15:19:34;7.05;;;6.57;;
27424;SDS011;15244;49.088;11.886;2023-05-16T15:24:36;7.03;;;6.35;;
27424;SDS011;15244;49.088;11.886;2023-05-16T15:29:37;6.13;;;5.72;;
27424;SDS011;15244;49.088;11.886;2023-05-16T15:34:39;6.28;;;5.68;;
27424;SDS011;15244;49.088;11.886;2023-05-16T15:39:40;5.88;;;5.40;;
27424;SDS011;15244;49.088;11.886;2023-05-16T15:44:42;5.25;;;4.85;;
27424;SDS011;15244;49.088;11.886;2023-05-16T15:49:44;5.82;;;5.50;;
27424;SDS011;15244;49.088;11.886;2023-05-16T15:54:45;5.20;;;4.80;;
27424;SDS011;15244;49.088;11.886;2023-05-16T15:59:47;4.22;;;3.90;;
27424;SDS011;15244;49.088;11.886;2023-05-16T16:04:48;3.78;;;3.47;;
27424;SDS011;15244;49.088;11.886;2023-05-16T16:09:51;3.33;;;2.92;;
27424;SDS011;15244;49.088;11.886;2023-05-16T16:14:53;3.05;;;2.95;;
27424;SDS011;15244;49.088;11.886;2023-05-16T16:19:55;3.13;;;2.92;;
27424;SDS011;15244;49.088;11.886;2023-05-16T16:24:56;3.80;;;3.47;;
27424;SDS011;15244;49.088;11.886;2023-05-16T16:29:58;3.35;;;3.15;;
27424;SDS011;15244;49.088;11.886;2023-05-16T16:35:00;3.95;;;3.75;;
27424;SDS011;15244;49.088;11.886;2023-05-16T16:40:08;3.92;;;3.67;;
27424;SDS011;15244;49.088;11.886;2023-05-16T16:45:10;3.35;;;3.13;;
27424;SDS011;15244;49.088;11.886;2023-05-16T16:50:12;3.05;;;2.80;;
27424;SDS011;15244;49.088;11.886;2023-05-16T16:55:13;3.25;;;3.00;;
27424;SDS011;15244;49.088;11.886;2023-05-16T17:00:15;5.88;;;3.65;;
27424;SDS011;15244;49.088;11.886;2023-05-16T17:05:18;3.25;;;3.05;;
27424;SDS011;15244;49.088;11.886;2023-05-16T17:10:20;3.72;;;3.30;;
27424;SDS011;15244;49.088;11.886;2023-05-16T17:15:21;4.03;;;3.72;;
27424;SDS011;15244;49.088;11.886;2023-05-16T17:20:23;3.30;;;3.05;;
27424;SDS011;15244;49.088;11.886;2023-05-16T17:25:25;3.88;;;3.58;;
27424;SDS011;15244;49.088;11.886;2023-05-16T17:30:28;4.10;;;3.90;;
27424;SDS011;15244;49.088;11.886;2023-05-16T17:35:31;3.40;;;3.20;;
27424;SDS011;15244;49.088;11.886;2023-05-16T17:40:36;3.35;;;3.15;;
27424;SDS011;15244;49.088;11.886;2023-05-16T17:45:38;3.58;;;3.33;;
27424;SDS011;15244;49.088;11.886;2023-05-16T17:50:43;2.80;;;2.70;;
27424;SDS011;15244;49.088;11.886;2023-05-16T17:55:45;3.40;;;2.83;;
27424;SDS011;15244;49.088;11.886;2023-05-16T18:00:48;2.30;;;2.15;;
27424;SDS011;15244;49.088;11.886;2023-05-16T18:05:49;3.75;;;2.70;;
27424;SDS011;15244;49.088;11.886;2023-05-16T18:10:52;2.13;;;2.03;;
27424;SDS011;15244;49.088;11.886;2023-05-16T18:15:53;2.53;;;2.28;;
27424;SDS011;15244;49.088;11.886;2023-05-16T18:20:55;2.08;;;1.98;;
27424;SDS011;15244;49.088;11.886;2023-05-16T18:25:58;2.40;;;2.05;;
27424;SDS011;15244;49.088;11.886;2023-05-16T18:31:01;2.20;;;2.10;;
27424;SDS011;15244;49.088;11.886;2023-05-16T18:36:06;2.10;;;1.90;;
27424;SDS011;15244;49.088;11.886;2023-05-16T18:41:08;1.90;;;1.80;;
27424;SDS011;15244;49.088;11.886;2023-05-16T18:46:10;1.70;;;1.60;;
27424;SDS011;15244;49.088;11.886;2023-05-16T18:51:12;1.25;;;1.25;;
27424;SDS011;15244;49.088;11.886;2023-05-16T18:56:14;4.63;;;1.58;;
27424;SDS011;15244;49.088;11.886;2023-05-16T19:01:16;1.10;;;1.00;;
27424;SDS011;15244;49.088;11.886;2023-05-16T19:06:22;1.42;;;1.20;;
27424;SDS011;15244;49.088;11.886;2023-05-16T19:11:24;1.55;;;1.45;;
27424;SDS011;15244;49.088;11.886;2023-05-16T19:16:26;1.30;;;1.15;;
27424;SDS011;15244;49.088;11.886;2023-05-16T19:21:28;1.70;;;1.50;;
27424;SDS011;15244;49.088;11.886;2023-05-16T19:26:30;2.45;;;1.27;;
27424;SDS011;15244;49.088;11.886;2023-05-16T19:31:31;2.38;;;1.23;;
27424;SDS011;15244;49.088;11.886;2023-05-16T19:36:33;1.95;;;1.17;;
27424;SDS011;15244;49.088;11.886;2023-05-16T19:41:35;2.38;;;1.23;;
27424;SDS011;15244;49.088;11.886;2023-05-16T19:46:36;3.08;;;1.60;;
27424;SDS011;15244;49.088;11.886;2023-05-16T19:51:39;3.88;;;1.90;;
27424;SDS011;15244;49.088;11.886;2023-05-16T19:56:42;2.30;;;1.50;;
27424;SDS011;15244;49.088;11.886;2023-05-16T20:01:44;3.33;;;1.60;;
27424;SDS011;15244;49.088;11.886;2023-05-16T20:06:46;5.35;;;2.08;;
27424;SDS011;15244;49.088;11.886;2023-05-16T20:11:47;2.35;;;1.60;;
27424;SDS011;15244;49.088;11.886;2023-05-16T20:16:49;4.15;;;1.40;;
27424;SDS011;15244;49.088;11.886;2023-05-16T20:21:51;3.55;;;1.80;;
27424;SDS011;15244;49.088;11.886;2023-05-16T20:26:53;2.25;;;1.58;;
27424;SDS011;15244;49.088;11.886;2023-05-16T20:31:54;4.10;;;1.90;;
27424;SDS011;15244;49.088;11.886;2023-05-16T20:36:56;5.10;;;1.80;;
27424;SDS011;15244;49.088;11.886;2023-05-16T20:41:58;3.83;;;1.40;;
27424;SDS011;15244;49.088;11.886;2023-05-16T20:47:00;6.15;;;1.85;;
27424;SDS011;15244;49.088;11.886;2023-05-16T20:52:02;4.20;;;1.77;;
27424;SDS011;15244;49.088;11.886;2023-05-16T20:57:04;3.67;;;1.58;;
27424;SDS011;15244;49.088;11.886;2023-05-16T21:02:06;4.13;;;1.85;;
27424;SDS011;15244;49.088;11.886;2023-05-16T21:07:10;5.45;;;1.63;;
27424;SDS011;15244;49.088;11.886;2023-05-16T21:12:12;4.82;;;1.70;;
27424;SDS011;15244;49.088;11.886;2023-05-16T21:17:14;2.58;;;1.52;;
27424;SDS011;15244;49.088;11.886;2023-05-16T21:22:16;4.68;;;1.50;;
27424;SDS011;15244;49.088;11.886;2023-05-16T21:27:17;2.55;;;1.27;;
27424;SDS011;15244;49.088;11.886;2023-05-16T21:32:19;3.22;;;1.70;;
27424;SDS011;15244;49.088;11.886;2023-05-16T21:37:20;3.63;;;1.80;;
27424;SDS011;15244;49.088;11.886;2023-05-16T21:42:22;5.72;;;1.83;;
27424;SDS011;15244;49.088;11.886;2023-05-16T21:47:23;4.32;;;1.48;;
27424;SDS011;15244;49.088;11.886;2023-05-16T21:52:26;7.18;;;1.88;;
27424;SDS011;15244;49.088;11.886;2023-05-16T21:57:28;1.60;;;1.30;;
27424;SDS011;15244;49.088;11.886;2023-05-16T22:02:29;4.88;;;1.95;;
27424;SDS011;15244;49.088;11.886;2023-05-16T22:07:31;4.47;;;1.38;;
27424;SDS011;15244;49.088;11.886;2023-05-16T22:12:33;4.78;;;1.40;;
27424;SDS011;15244;49.088;11.886;2023-05-16T22:17:34;4.70;;;1.88;;
27424;SDS011;15244;49.088;11.886;2023-05-16T22:22:36;3.53;;;1.35;;
27424;SDS011;15244;49.088;11.886;2023-05-16T22:27:38;3.67;;;1.58;;
27424;SDS011;15244;49.088;11.886;2023-05-16T22:32:40;8.05;;;1.92;;
27424;SDS011;15244;49.088;11.886;2023-05-16T22:37:41;5.20;;;1.77;;
27424;SDS011;15244;49.088;11.886;2023-05-16T22:42:43;1.50;;;1.23;;
27424;SDS011;15244;49.088;11.886;2023-05-16T22:47:44;2.25;;;1.58;;
27424;SDS011;15244;49.088;11.886;2023-05-16T22:52:46;3.40;;;1.27;;
27424;SDS011;15244;49.088;11.886;2023-05-16T22:57:47;3.38;;;1.50;;
27424;SDS011;15244;49.088;11.886;2023-05-16T23:02:49;4.10;;;1.95;;
27424;SDS011;15244;49.088;11.886;2023-05-16T23:07:51;3.85;;;2.03;;
27424;SDS011;15244;49.088;11.886;2023-05-16T23:12:52;5.50;;;1.65;;
27424;SDS011;15244;49.088;11.886;2023-05-16T23:17:54;5.25;;;1.73;;
27424;SDS011;15244;49.088;11.886;2023-05-16T23:22:56;4.28;;;1.67;;
27424;SDS011;15244;49.088;11.886;2023-05-16T23:27:58;4.85;;;1.40;;
27424;SDS011;15244;49.088;11.886;2023-05-16T23:32:59;3.58;;;1.42;;
27424;SDS011;15244;49.088;11.886;2023-05-16T23:38:01;11.43;;;2.28;;
27424;SDS011;15244;49.088;11.886;2023-05-16T23:43:02;5.57;;;1.77;;
27424;SDS011;15244;49.088;11.886;2023-05-16T23:48:04;3.22;;;1.85;;
27424;SDS011;15244;49.088;11.886;2023-05-16T23:53:06;3.85;;;2.17;;
27424;SDS011;15244;49.088;11.886;2023-05-16T23:58:07;4.78;;;1.73;;
